Time;durP1;ratioP1;P1;durP2;ratioP2;P2;SDS_P1;SDS_P2;PMS_P1;PMS_P2;Temp;Humidity;BMP_temperature;BMP_pressure;BME280_temperature;BME280_humidity;BME280_pressure;Samples;Min_cycle;Max_cycle;Signal;HPM_P1;HPM_P2
2021/12/12 00:01:36;;;;;;;26.73;18.43;;;;;;;1.27;100.00;97365.69;5054080;28;20452;-72
2021/12/12 00:04:13;;;;;;;28.37;19.80;;;;;;;1.25;100.00;97365.16;5054054;28;20471;-72
2021/12/12 00:06:49;;;;;;;27.43;18.17;;;;;;;1.21;100.00;97368.50;5036164;28;20510;-72
2021/12/12 00:09:32;;;;;;;29.50;18.07;;;;;;;1.15;100.00;97367.63;5054303;28;20795;-72
2021/12/12 00:12:04;;;;;;;27.20;19.63;;;;;;;1.26;100.00;97371.16;5070310;28;20459;-72
2021/12/12 00:14:33;;;;;;;31.20;20.57;;;;;;;1.19;100.00;97373.91;5036954;28;20453;-72
2021/12/12 00:17:02;;;;;;;29.43;18.73;;;;;;;0.97;100.00;97342.63;5053102;28;20489;-72
2021/12/12 00:19:30;;;;;;;31.13;19.60;;;;;;;1.21;100.00;97364.06;5054975;28;20437;-71
2021/12/12 00:22:00;;;;;;;29.63;21.20;;;;;;;1.12;100.00;97361.06;5037838;28;20487;-72
2021/12/12 00:24:27;;;;;;;31.80;20.33;;;;;;;1.23;100.00;97371.63;5036648;28;20438;-72
2021/12/12 00:26:55;;;;;;;31.10;20.03;;;;;;;1.12;100.00;97350.66;5070506;28;20456;-71
2021/12/12 00:29:24;;;;;;;33.90;19.93;;;;;;;1.20;100.00;97365.06;5052878;28;20441;-72
2021/12/12 00:31:53;;;;;;;36.97;21.60;;;;;;;1.09;100.00;97366.78;5053412;28;20479;-72
2021/12/12 00:34:20;;;;;;;36.67;20.40;;;;;;;1.19;100.00;97364.28;5052426;28;20484;-72
2021/12/12 00:36:47;;;;;;;42.53;20.90;;;;;;;0.77;100.00;97343.13;5052699;28;20473;-72
2021/12/12 00:39:18;;;;;;;37.60;21.03;;;;;;;0.81;100.00;97359.88;5054790;28;20984;-76
2021/12/12 00:41:53;;;;;;;33.20;20.73;;;;;;;0.88;100.00;97376.09;5053464;28;20437;-72
2021/12/12 00:44:20;;;;;;;36.80;21.67;;;;;;;0.75;100.00;97365.22;5052539;28;20885;-72
2021/12/12 00:46:47;;;;;;;42.97;23.17;;;;;;;0.97;100.00;97384.31;5052471;28;20544;-72
2021/12/12 00:49:17;;;;;;;38.83;21.93;;;;;;;0.80;100.00;97366.09;5054667;28;20440;-72
2021/12/12 00:51:45;;;;;;;41.20;24.10;;;;;;;1.06;100.00;97376.84;5053244;28;20441;-74
2021/12/12 00:54:14;;;;;;;38.43;22.83;;;;;;;1.17;100.00;97383.78;5052508;28;20457;-71
2021/12/12 00:56:42;;;;;;;40.83;22.90;;;;;;;1.26;100.00;97384.19;5052278;28;20491;-72
2021/12/12 00:59:10;;;;;;;31.70;20.60;;;;;;;1.20;100.00;97388.50;5069130;28;20955;-72
2021/12/12 01:01:44;;;;;;;37.23;21.30;;;;;;;1.18;100.00;97393.16;5052621;28;20440;-72
2021/12/12 01:04:17;;;;;;;43.17;25.20;;;;;;;1.19;100.00;97400.75;5053975;28;20467;-72
2021/12/12 01:06:45;;;;;;;47.13;27.60;;;;;;;1.12;100.00;97386.34;5068845;28;20837;-73
2021/12/12 01:09:19;;;;;;;34.00;20.37;;;;;;;0.87;100.00;97355.50;5054438;28;21002;-72
2021/12/12 01:11:50;;;;;;;34.73;20.17;;;;;;;1.28;100.00;97401.13;5052742;28;21139;-72
2021/12/12 01:14:22;;;;;;;34.37;20.90;;;;;;;1.31;100.00;97403.25;5052916;28;20524;-72
2021/12/12 01:17:22;;;;;;;34.10;21.63;;;;;;;1.32;100.00;97409.25;5053201;28;20505;-72
2021/12/12 01:19:57;;;;;;;34.47;21.30;;;;;;;1.18;100.00;97396.56;5068909;28;21097;-72
2021/12/12 01:22:30;;;;;;;33.80;20.77;;;;;;;1.33;100.00;97414.22;5053961;28;20417;-72
2021/12/12 01:25:05;;;;;;;30.67;22.83;;;;;;;1.19;100.00;97410.38;5054142;28;20420;-72
2021/12/12 01:27:32;;;;;;;32.93;19.83;;;;;;;1.26;100.00;97415.44;5052519;28;21170;-72
2021/12/12 01:29:59;;;;;;;29.90;18.73;;;;;;;1.24;100.00;97414.88;5052616;28;20441;-72
2021/12/12 01:32:30;;;;;;;31.40;20.20;;;;;;;1.17;100.00;97400.19;5053473;28;20441;-72
2021/12/12 01:34:58;;;;;;;32.63;20.53;;;;;;;1.29;100.00;97410.53;5053658;28;20445;-72
2021/12/12 01:40:16;;;;;;;36.67;19.37;;;;;;;1.23;100.00;97408.88;5054530;28;20457;-72
2021/12/12 01:42:48;;;;;;;39.53;20.33;;;;;;;1.21;100.00;97412.78;5051933;28;20429;-72
2021/12/12 01:45:33;;;;;;;30.80;19.43;;;;;;;1.16;100.00;97397.84;5053669;28;20421;-72
2021/12/12 01:48:06;;;;;;;34.73;21.03;;;;;;;1.30;100.00;97412.09;5054046;28;20461;-72
2021/12/12 01:50:38;;;;;;;37.87;21.87;;;;;;;1.25;100.00;97416.47;5069207;28;20445;-72
2021/12/12 01:53:07;;;;;;;34.53;21.67;;;;;;;1.31;100.00;97425.91;5054539;28;20421;-72
2021/12/12 01:56:06;;;;;;;37.30;23.43;;;;;;;1.29;100.00;97428.75;5052263;28;20522;-72
2021/12/12 01:58:35;;;;;;;31.50;20.20;;;;;;;1.19;100.00;97442.41;5051786;28;20449;-72
2021/12/12 02:01:09;;;;;;;36.57;23.30;;;;;;;0.98;100.00;97411.91;5069866;28;20960;-72
2021/12/12 02:03:47;;;;;;;35.03;22.07;;;;;;;1.33;100.00;97429.84;5053528;28;20523;-72
2021/12/12 02:06:19;;;;;;;28.70;18.50;;;;;;;1.31;100.00;97437.13;5051819;28;20456;-72
2021/12/12 02:08:50;;;;;;;31.70;20.90;;;;;;;1.09;100.00;97429.25;5036193;28;20483;-72
2021/12/12 02:11:21;;;;;;;31.40;21.93;;;;;;;1.22;100.00;97445.59;5054111;28;20417;-72
2021/12/12 02:13:51;;;;;;;38.40;23.53;;;;;;;1.21;100.00;97431.78;5050068;28;20928;-72
2021/12/12 02:16:20;;;;;;;39.27;22.30;;;;;;;1.24;100.00;97427.91;5050327;28;20632;-72
2021/12/12 02:18:51;;;;;;;43.40;21.50;;;;;;;1.22;100.00;97419.56;5050287;28;21019;-70
2021/12/12 02:21:39;;;;;;;33.07;22.40;;;;;;;1.34;100.00;97431.47;5050207;28;20417;-71
2021/12/12 02:37:44;;;;;;;32.67;20.57;;;;;;;1.00;100.00;97430.69;5066732;28;20465;-70
2021/12/12 02:40:17;;;;;;;33.97;20.90;;;;;;;0.95;100.00;97419.41;5050198;28;20495;-71
2021/12/12 02:42:44;;;;;;;35.77;22.73;;;;;;;0.90;100.00;97414.91;5051531;28;20501;-71
2021/12/12 02:45:13;;;;;;;28.97;18.90;;;;;;;1.09;100.00;97434.47;5050049;28;20467;-71
2021/12/12 02:47:39;;;;;;;36.17;21.30;;;;;;;1.26;100.00;97428.47;5050088;28;20536;-71
2021/12/12 02:50:18;;;;;;;35.47;21.17;;;;;;;1.23;100.00;97421.91;5050037;28;20449;-71
2021/12/12 02:52:51;;;;;;;33.10;20.97;;;;;;;1.23;100.00;97437.53;5051236;28;20418;-71
2021/12/12 02:55:28;;;;;;;30.43;21.57;;;;;;;1.47;100.00;97444.16;5050058;28;20457;-71
2021/12/12 02:58:16;;;;;;;25.93;19.40;;;;;;;1.42;100.00;97425.81;5033736;28;20432;-71
2021/12/12 03:00:50;;;;;;;33.20;20.50;;;;;;;1.34;100.00;97441.88;5012630;28;21042;-71
2021/12/12 03:03:17;;;;;;;34.77;17.27;;;;;;;1.31;100.00;97410.28;5029013;28;20438;-70
2021/12/12 03:05:47;;;;;;;29.07;19.60;;;;;;;1.49;100.00;97436.09;5029226;28;20469;-71
2021/12/12 03:08:15;;;;;;;36.33;21.33;;;;;;;1.48;100.00;97437.13;5029358;28;20460;-71
2021/12/12 03:10:46;;;;;;;35.10;21.53;;;;;;;1.49;100.00;97436.09;5028876;28;20445;-71
2021/12/12 03:13:13;;;;;;;29.43;19.63;;;;;;;1.45;100.00;97435.75;5029154;28;20485;-71
2021/12/12 03:15:43;;;;;;;29.73;18.63;;;;;;;1.43;100.00;97435.22;5012569;28;20462;-71
2021/12/12 03:18:19;;;;;;;34.70;19.47;;;;;;;1.43;100.00;97434.41;5028645;28;20445;-71
2021/12/12 03:20:51;;;;;;;31.17;21.53;;;;;;;1.35;100.00;97422.59;4995970;28;20430;-70
2021/12/12 03:23:29;;;;;;;28.10;18.10;;;;;;;1.44;100.00;97436.78;5028668;28;20452;-70
2021/12/12 03:26:03;;;;;;;35.10;20.50;;;;;;;1.45;100.00;97435.75;5028601;28;20450;-71
2021/12/12 03:28:32;;;;;;;37.27;19.80;;;;;;;1.45;100.00;97432.34;5028721;28;20440;-71
2021/12/12 03:31:02;;;;;;;31.10;17.77;;;;;;;1.47;100.00;97444.16;5028533;28;20527;-71
2021/12/12 03:33:31;;;;;;;26.27;18.53;;;;;;;1.46;100.00;97454.78;5028385;28;20442;-71
2021/12/12 03:36:01;;;;;;;32.37;21.00;;;;;;;1.38;100.00;97437.75;5011764;28;20524;-71
2021/12/12 03:38:29;;;;;;;30.30;19.30;;;;;;;1.43;100.00;97445.63;5040686;28;20927;-71
2021/12/12 03:41:00;;;;;;;41.73;23.37;;;;;;;1.42;100.00;97436.25;5065884;28;20499;-71
2021/12/12 03:43:29;;;;;;;31.70;20.57;;;;;;;1.44;100.00;97443.81;5069055;28;20460;-71
2021/12/12 03:45:57;;;;;;;30.60;18.30;;;;;;;1.36;100.00;97436.41;5036386;28;20999;-71
2021/12/12 03:48:28;;;;;;;26.33;16.10;;;;;;;1.41;100.00;97450.28;5054357;28;20974;-71
2021/12/12 03:51:01;;;;;;;31.77;20.13;;;;;;;1.35;100.00;97443.44;5052972;28;20893;-71
2021/12/12 03:53:29;;;;;;;31.67;18.30;;;;;;;1.32;100.00;97449.13;5052768;28;20430;-71
2021/12/12 03:55:57;;;;;;;30.90;17.13;;;;;;;1.34;100.00;97456.72;5069326;28;21060;-71
2021/12/12 03:58:24;;;;;;;36.67;18.17;;;;;;;1.32;100.00;97462.13;5036193;28;20488;-71
2021/12/12 04:01:01;;;;;;;30.63;20.40;;;;;;;1.30;100.00;97461.59;5052974;28;20472;-71
2021/12/12 04:03:28;;;;;;;26.80;18.00;;;;;;;1.33;100.00;97475.97;5052865;28;20465;-70
2021/12/12 04:06:05;;;;;;;24.27;16.23;;;;;;;1.35;100.00;97473.94;5069741;28;20452;-70
2021/12/12 04:08:36;;;;;;;32.80;18.27;;;;;;;1.28;100.00;97473.28;5052663;28;20495;-71
2021/12/12 04:11:06;;;;;;;29.70;17.87;;;;;;;1.41;100.00;97494.59;5069182;28;20479;-70
2021/12/12 04:13:39;;;;;;;29.13;19.13;;;;;;;1.20;100.00;97464.03;5053739;28;20445;-71
2021/12/12 04:16:07;;;;;;;27.07;18.37;;;;;;;1.28;100.00;97470.69;5052417;28;20475;-71
2021/12/12 04:18:34;;;;;;;30.60;18.23;;;;;;;1.31;100.00;97483.22;5068965;28;20520;-71
2021/12/12 04:21:01;;;;;;;26.77;18.70;;;;;;;1.44;100.00;97495.94;5052219;28;20461;-70
2021/12/12 04:23:28;;;;;;;32.27;18.80;;;;;;;1.40;100.00;97498.22;5052450;28;20841;-71
2021/12/12 04:26:12;;;;;;;26.50;18.43;;;;;;;1.46;100.00;97499.06;5068702;28;20484;-71
2021/12/12 04:28:40;;;;;;;31.53;17.23;;;;;;;1.34;100.00;97493.19;5052325;28;21002;-71
2021/12/12 04:31:08;;;;;;;30.07;17.60;;;;;;;1.43;100.00;97499.56;5053483;28;20511;-71
2021/12/12 04:33:35;;;;;;;26.93;18.50;;;;;;;1.48;100.00;97518.69;5052118;28;20441;-71
2021/12/12 04:36:03;;;;;;;24.83;16.37;;;;;;;1.43;100.00;97518.59;5035315;28;20477;-71
2021/12/12 04:38:29;;;;;;;27.17;19.40;;;;;;;1.24;100.00;97495.63;5068612;28;20502;-71
2021/12/12 04:40:56;;;;;;;37.00;17.20;;;;;;;1.28;100.00;97518.34;5068477;28;20947;-71
2021/12/12 04:43:23;;;;;;;23.83;16.93;;;;;;;1.25;100.00;97523.25;5051827;28;20499;-71
2021/12/12 04:46:02;;;;;;;31.00;18.27;;;;;;;1.16;100.00;97523.63;5068335;28;20452;-71
2021/12/12 04:51:32;;;;;;;28.90;16.23;;;;;;;1.07;100.00;97517.25;5068622;28;20958;-72
2021/12/12 04:54:28;;;;;;;27.43;19.13;;;;;;;1.11;100.00;97515.75;5050665;28;20479;-71
2021/12/12 04:57:11;;;;;;;29.43;19.00;;;;;;;0.98;100.00;97504.84;5051518;28;20481;-71
2021/12/12 04:59:45;;;;;;;23.10;15.67;;;;;;;1.05;100.00;97518.50;5068139;28;20491;-71
2021/12/12 05:02:18;;;;;;;25.63;17.23;;;;;;;1.04;100.00;97516.91;5051602;28;20486;-72
2021/12/12 05:04:45;;;;;;;25.33;16.60;;;;;;;1.18;100.00;97518.19;5068042;28;20929;-71
2021/12/12 05:07:18;;;;;;;28.83;15.60;;;;;;;1.18;100.00;97511.16;5068160;28;20468;-71
2021/12/12 05:09:51;;;;;;;22.27;16.07;;;;;;;1.07;100.00;97486.00;5051243;28;20425;-71
2021/12/12 05:12:30;;;;;;;26.63;17.07;;;;;;;1.35;100.00;97520.81;5052601;28;20430;-71
2021/12/12 05:15:01;;;;;;;31.53;21.03;;;;;;;1.29;100.00;97506.91;5051159;28;20469;-71
2021/12/12 05:17:42;;;;;;;28.33;18.00;;;;;;;1.44;100.00;97514.16;5052520;28;20963;-71
2021/12/12 05:20:16;;;;;;;26.33;17.10;;;;;;;1.46;100.00;97527.75;5051272;28;20421;-71
2021/12/12 05:22:50;;;;;;;23.30;16.30;;;;;;;1.57;100.00;97545.13;5051208;28;20491;-71
2021/12/12 05:25:21;;;;;;;31.63;17.80;;;;;;;1.29;100.00;97527.75;5069409;28;20504;-70
2021/12/12 05:27:51;;;;;;;25.10;16.53;;;;;;;1.27;100.00;97542.03;5054853;28;20460;-70
2021/12/12 05:30:23;;;;;;;22.10;15.70;;;;;;;1.07;100.00;97532.88;5055117;28;20520;-71
2021/12/12 05:32:51;;;;;;;22.33;16.03;;;;;;;0.98;100.00;97515.28;5069458;28;20417;-71
2021/12/12 05:35:20;;;;;;;24.33;17.97;;;;;;;1.12;100.00;97545.97;5050975;28;20487;-71
2021/12/12 05:37:54;;;;;;;23.17;16.83;;;;;;;1.07;100.00;97552.91;5052213;28;20457;-71
2021/12/12 05:40:29;;;;;;;28.13;17.77;;;;;;;1.08;100.00;97564.91;5052090;28;20800;-71
2021/12/12 05:42:59;;;;;;;24.50;16.83;;;;;;;1.03;100.00;97559.59;5034402;28;21223;-71
2021/12/12 05:45:31;;;;;;;27.90;15.60;;;;;;;1.05;100.00;97560.16;5050942;28;20486;-71
2021/12/12 05:47:58;;;;;;;24.83;17.63;;;;;;;1.29;100.00;97553.00;5034141;28;20474;-72
2021/12/12 05:50:26;;;;;;;24.83;17.00;;;;;;;1.22;100.00;97547.97;5050659;28;20866;-71
2021/12/12 05:52:54;;;;;;;25.90;16.33;;;;;;;1.28;100.00;97554.03;5033915;28;20445;-71
2021/12/12 05:55:28;;;;;;;29.67;17.23;;;;;;;1.17;100.00;97556.47;5050444;28;20518;-71
2021/12/12 05:57:56;;;;;;;23.83;17.10;;;;;;;1.13;100.00;97552.75;5051792;28;20470;-71
2021/12/12 06:00:34;;;;;;;21.80;17.30;;;;;;;1.01;100.00;97541.63;5067071;28;20481;-71
2021/12/12 06:03:01;;;;;;;27.77;17.50;;;;;;;1.11;100.00;97575.66;5050397;28;20437;-71
2021/12/12 06:05:31;;;;;;;22.57;18.07;;;;;;;1.12;100.00;97577.22;5051447;28;20459;-71
2021/12/12 06:07:58;;;;;;;27.17;16.77;;;;;;;1.09;100.00;97580.31;5050244;28;20445;-71
2021/12/12 06:10:26;;;;;;;23.90;15.87;;;;;;;1.09;100.00;97584.72;5067036;28;20441;-71
2021/12/12 06:12:54;;;;;;;27.57;16.77;;;;;;;0.92;100.00;97553.44;5066592;28;20471;-71
2021/12/12 06:15:23;;;;;;;23.70;16.47;;;;;;;1.04;100.00;97579.41;5051420;28;20505;-71
2021/12/12 06:17:51;;;;;;;25.80;16.17;;;;;;;1.12;100.00;97589.47;5050119;28;21030;-72
2021/12/12 06:20:19;;;;;;;30.70;21.20;;;;;;;1.11;100.00;97600.91;5050017;28;20860;-73
2021/12/12 06:22:48;;;;;;;22.90;18.80;;;;;;;1.06;100.00;97585.97;5033573;28;20438;-71
2021/12/12 06:25:16;;;;;;;26.00;16.50;;;;;;;0.98;100.00;97573.34;5049933;28;20532;-71
2021/12/12 06:27:42;;;;;;;25.53;15.70;;;;;;;1.05;100.00;97588.81;5066577;28;20551;-71
2021/12/12 06:30:14;;;;;;;23.73;15.93;;;;;;;1.00;100.00;97597.31;5051199;28;20465;-71
2021/12/12 06:32:42;;;;;;;25.27;18.73;;;;;;;1.04;100.00;97608.84;5051265;28;20774;-71
2021/12/12 06:35:09;;;;;;;27.17;18.80;;;;;;;0.93;100.00;97595.88;5049758;28;21001;-72
2021/12/12 06:37:37;;;;;;;27.80;16.20;;;;;;;0.98;100.00;97601.19;5049548;28;20469;-71
2021/12/12 06:40:06;;;;;;;28.47;19.67;;;;;;;1.04;100.00;97606.25;5066439;28;20468;-71
2021/12/12 06:42:33;;;;;;;28.60;19.87;;;;;;;1.40;100.00;97619.91;5051163;28;20429;-71
2021/12/12 06:45:00;;;;;;;26.23;18.83;;;;;;;1.41;100.00;97619.66;5051332;28;20847;-71
2021/12/12 06:47:27;;;;;;;27.83;18.83;;;;;;;1.41;100.00;97595.41;5066301;28;20449;-71
2021/12/12 06:49:55;;;;;;;24.07;15.50;;;;;;;1.62;100.00;97612.97;5051051;28;20781;-71
2021/12/12 06:52:22;;;;;;;22.97;16.60;;;;;;;1.65;100.00;97622.91;5049813;28;20433;-71
2021/12/12 06:54:50;;;;;;;27.10;15.27;;;;;;;1.64;100.00;97618.75;5066306;28;20502;-71
2021/12/12 06:57:18;;;;;;;27.60;19.33;;;;;;;1.64;100.00;97602.31;5049702;28;20511;-71
2021/12/12 06:59:48;;;;;;;22.90;16.43;;;;;;;1.72;100.00;97633.97;5049904;28;20467;-71
2021/12/12 07:02:15;;;;;;;27.03;15.73;;;;;;;1.36;100.00;97645.63;5049488;28;20468;-72
2021/12/12 07:04:44;;;;;;;26.23;14.60;;;;;;;1.21;100.00;97618.53;5066296;28;20437;-71
2021/12/12 07:07:14;;;;;;;25.40;18.73;;;;;;;1.59;100.00;97633.47;5066158;28;20522;-71
2021/12/12 07:09:43;;;;;;;26.57;19.37;;;;;;;1.50;100.00;97620.06;5051002;28;20429;-71
2021/12/12 07:12:14;;;;;;;30.53;20.80;;;;;;;1.61;100.00;97618.44;5066364;28;20448;-71
2021/12/12 07:14:43;;;;;;;19.50;17.47;;;;;;;1.63;100.00;97618.97;5049656;28;20491;-72
2021/12/12 07:17:11;;;;;;;23.33;16.60;;;;;;;1.67;100.00;97625.28;5067148;28;21242;-73
2021/12/12 07:19:40;;;;;;;24.53;19.53;;;;;;;1.58;100.00;97624.88;5054956;28;20441;-71
2021/12/12 07:22:07;;;;;;;21.73;18.20;;;;;;;1.66;100.00;97637.53;5053213;28;20487;-73
2021/12/12 07:24:35;;;;;;;16.73;12.93;;;;;;;1.53;100.00;97627.41;5053374;28;20433;-71
2021/12/12 07:27:02;;;;;;;28.93;16.83;;;;;;;1.57;100.00;97640.75;5053536;28;20467;-71
2021/12/12 07:29:30;;;;;;;18.23;12.57;;;;;;;1.51;100.00;97646.91;5069868;28;20868;-71
2021/12/12 07:31:57;;;;;;;16.60;10.50;;;;;;;1.35;100.00;97636.25;5053153;28;20440;-71
2021/12/12 07:34:25;;;;;;;17.37;10.37;;;;;;;1.44;100.00;97657.47;5053162;28;20451;-71
2021/12/12 07:36:59;;;;;;;11.40;8.97;;;;;;;1.43;100.00;97656.69;5069593;28;20468;-71
2021/12/12 07:39:28;;;;;;;11.23;7.67;;;;;;;1.13;100.00;97610.06;5070919;28;20444;-70
2021/12/12 07:41:57;;;;;;;9.77;5.77;;;;;;;1.05;100.00;97607.03;5053235;28;20472;-71
2021/12/12 07:44:28;;;;;;;8.13;6.87;;;;;;;1.23;100.00;97635.50;5069927;28;20477;-71
2021/12/12 07:46:57;;;;;;;5.10;4.70;;;;;;;1.23;100.00;97639.91;5036292;28;20530;-71
2021/12/12 07:49:28;;;;;;;9.50;6.50;;;;;;;1.37;100.00;97675.88;5052867;28;20449;-71
2021/12/12 07:51:56;;;;;;;11.13;6.60;;;;;;;1.22;100.00;97638.34;5053107;28;20851;-71
2021/12/12 07:54:22;;;;;;;7.63;6.80;;;;;;;1.33;100.00;97650.50;5052770;28;20475;-72
2021/12/12 07:56:50;;;;;;;9.00;7.73;;;;;;;1.50;100.00;97672.19;5053796;28;20575;-71
2021/12/12 07:59:18;;;;;;;14.93;11.00;;;;;;;1.52;100.00;97675.34;5053982;28;20437;-71
2021/12/12 08:01:47;;;;;;;43.57;28.67;;;;;;;1.52;100.00;97667.53;5054021;28;20491;-71
2021/12/12 08:04:16;;;;;;;53.23;34.80;;;;;;;1.58;100.00;97671.00;5052650;28;20434;-72
2021/12/12 08:06:44;;;;;;;17.97;13.20;;;;;;;1.64;100.00;97683.13;5068792;28;20453;-71
2021/12/12 08:09:14;;;;;;;14.07;12.67;;;;;;;1.65;100.00;97687.28;5052510;28;20433;-73
2021/12/12 08:11:43;;;;;;;12.03;8.37;;;;;;;1.61;100.00;97689.59;5052319;28;20429;-72
2021/12/12 08:14:16;;;;;;;7.63;5.77;;;;;;;1.70;100.00;97688.16;5069001;28;20472;-71
2021/12/12 08:16:45;;;;;;;11.13;7.40;;;;;;;1.70;100.00;97688.16;5052103;28;20468;-71
2021/12/12 08:19:12;;;;;;;10.60;9.70;;;;;;;1.76;100.00;97692.44;5053667;28;20430;-71
2021/12/12 08:21:39;;;;;;;11.93;10.73;;;;;;;1.75;100.00;97696.09;5068884;28;21297;-71
2021/12/12 08:24:10;;;;;;;17.17;14.63;;;;;;;1.75;100.00;97690.09;5068905;28;20441;-71
2021/12/12 08:26:40;;;;;;;17.33;11.43;;;;;;;1.76;100.00;97683.84;5052166;28;20505;-71
2021/12/12 08:29:10;;;;;;;12.90;11.60;;;;;;;1.72;100.00;97683.50;5050830;28;20433;-71
2021/12/12 08:31:37;;;;;;;12.00;10.77;;;;;;;1.64;100.00;97689.13;5052122;28;20437;-71
2021/12/12 08:34:07;;;;;;;15.90;11.87;;;;;;;1.62;100.00;97699.00;5053381;28;20433;-71
2021/12/12 08:36:37;;;;;;;38.17;25.23;;;;;;;1.60;100.00;97706.22;5051696;28;20480;-71
2021/12/12 08:39:06;;;;;;;20.07;11.40;;;;;;;1.55;100.00;97706.16;5051800;28;20532;-71
2021/12/12 08:41:35;;;;;;;15.33;12.07;;;;;;;1.35;100.00;97687.56;5051895;28;20465;-72
2021/12/12 08:44:04;;;;;;;14.60;13.10;;;;;;;1.61;100.00;97720.06;5035267;28;20489;-71
2021/12/12 08:46:31;;;;;;;10.40;8.10;;;;;;;1.58;100.00;97712.69;5051716;28;20492;-72
2021/12/12 08:49:01;;;;;;;18.90;11.17;;;;;;;1.62;100.00;97722.44;5051881;28;20440;-71
2021/12/12 08:51:32;;;;;;;9.80;6.73;;;;;;;1.51;100.00;97714.69;5051776;28;20472;-71
2021/12/12 08:54:12;;;;;;;8.50;7.63;;;;;;;1.54;100.00;97722.81;5068482;28;20437;-71
2021/12/12 08:56:44;;;;;;;7.70;6.97;;;;;;;1.39;100.00;97701.69;5035064;28;20552;-72
2021/12/12 08:59:26;;;;;;;12.23;8.00;;;;;;;1.51;100.00;97723.28;5051842;28;20536;-70
2021/12/12 09:01:57;;;;;;;6.23;5.53;;;;;;;1.44;100.00;97718.19;5052829;28;20460;-71
2021/12/12 09:04:28;;;;;;;9.80;4.83;;;;;;;1.35;100.00;97714.41;5051465;28;20434;-71
2021/12/12 09:07:05;;;;;;;6.70;4.47;;;;;;;1.39;100.00;97723.31;5053010;28;20860;-71
2021/12/12 09:09:40;;;;;;;7.23;5.33;;;;;;;1.25;100.00;97697.78;5051243;28;20455;-71
2021/12/12 09:12:22;;;;;;;7.10;5.80;;;;;;;1.57;100.00;97727.56;5052734;28;20824;-71
2021/12/12 09:15:15;;;;;;;7.60;6.60;;;;;;;1.62;100.00;97719.84;5051483;28;20437;-71
2021/12/12 09:17:46;;;;;;;5.20;4.70;;;;;;;1.60;100.00;97695.00;5052374;28;20476;-71
2021/12/12 09:20:48;;;;;;;6.60;6.13;;;;;;;1.78;100.00;97703.44;5068036;28;20984;-71
2021/12/12 09:23:32;;;;;;;6.30;4.20;;;;;;;1.85;100.00;97720.72;5049473;28;20846;-71
2021/12/12 09:26:05;;;;;;;6.63;3.60;;;;;;;1.79;100.00;97699.00;5052126;28;20453;-71
2021/12/12 09:28:39;;;;;;;4.63;4.10;;;;;;;1.95;100.00;97713.88;5052311;28;20413;-71
2021/12/12 09:31:11;;;;;;;5.13;3.40;;;;;;;2.01;100.00;97722.59;5050833;28;20424;-71
2021/12/12 09:33:49;;;;;;;4.00;3.70;;;;;;;1.93;100.00;97713.31;5052084;28;20436;-71
2021/12/12 09:36:20;;;;;;;7.03;5.80;;;;;;;1.95;100.00;97713.06;5050584;28;20465;-71
2021/12/12 09:39:13;;;;;;;6.47;4.80;;;;;;;2.04;100.00;97702.03;5067456;28;21174;-71
2021/12/12 09:41:55;;;;;;;8.37;5.40;;;;;;;1.98;100.00;97707.38;5027738;28;20479;-71
2021/12/12 09:44:36;;;;;;;8.60;4.33;;;;;;;1.94;100.00;97701.06;5050608;28;20440;-71
2021/12/12 09:47:35;;;;;;;7.60;4.80;;;;;;;1.97;100.00;97690.94;5050426;28;20881;-71
2021/12/12 09:53:51;;;;;;;5.13;4.63;;;;;;;1.95;100.00;97669.53;5051962;28;20417;-71
2021/12/12 09:56:33;;;;;;;6.70;6.10;;;;;;;1.76;100.00;97639.53;5027624;28;20518;-71
2021/12/12 09:59:40;;;;;;;8.80;5.57;;;;;;;1.84;100.00;97646.94;5050543;28;20441;-71
2021/12/12 10:02:32;;;;;;;7.03;5.63;;;;;;;2.00;100.00;97667.03;5050426;28;20448;-71
2021/12/12 10:05:30;;;;;;;9.67;4.37;;;;;;;1.98;100.00;97665.66;5033826;28;20448;-72
2021/12/12 10:08:24;;;;;;;12.13;4.70;;;;;;;2.03;100.00;97663.94;5067447;28;20409;-71
2021/12/12 10:11:10;;;;;;;7.50;5.10;;;;;;;1.99;100.00;97654.19;5051873;28;20981;-71
2021/12/12 10:13:47;;;;;;;11.20;6.67;;;;;;;2.16;100.00;97675.06;5050342;28;20429;-71
2021/12/12 10:16:22;;;;;;;7.17;4.37;;;;;;;2.17;100.00;97672.22;5066569;28;20465;-71
2021/12/12 10:19:22;;;;;;;10.63;5.40;;;;;;;2.18;100.00;97659.97;5066696;28;20962;-71
2021/12/12 10:21:58;;;;;;;5.20;4.70;;;;;;;2.36;100.00;97644.81;5020443;28;20453;-72
2021/12/12 10:24:33;;;;;;;4.50;4.00;;;;;;;2.38;100.00;97653.19;5050378;28;20468;-72
2021/12/12 10:27:18;;;;;;;7.97;4.87;;;;;;;2.19;100.00;97628.41;5050938;28;21011;-72
2021/12/12 10:30:00;;;;;;;5.80;4.60;;;;;;;2.29;100.00;97635.59;5067678;28;20429;-72
2021/12/12 10:32:34;;;;;;;3.90;3.60;;;;;;;2.37;100.00;97638.56;5050259;28;20492;-72
2021/12/12 10:35:09;;;;;;;6.10;4.40;;;;;;;2.27;100.00;97630.63;5066687;28;20472;-72
2021/12/12 10:37:57;;;;;;;7.00;3.87;;;;;;;2.39;100.00;97651.38;5051710;28;20476;-71
2021/12/12 10:40:36;;;;;;;8.93;5.53;;;;;;;2.41;100.00;97643.34;5049796;28;20491;-71
2021/12/12 10:43:08;;;;;;;5.23;4.10;;;;;;;2.54;100.00;97656.03;5049841;28;20472;-72
2021/12/12 10:45:49;;;;;;;3.30;3.00;;;;;;;2.33;100.00;97653.16;5050250;28;20831;-71
2021/12/12 10:48:20;;;;;;;5.90;4.80;;;;;;;2.37;100.00;97658.66;5051650;28;20808;-72
2021/12/12 10:51:05;;;;;;;6.80;4.83;;;;;;;2.44;100.00;97658.50;5052835;28;20412;-71
2021/12/12 10:53:48;;;;;;;4.73;4.33;;;;;;;2.33;100.00;97627.03;5070314;28;20417;-71
2021/12/12 10:56:38;;;;;;;8.73;4.93;;;;;;;2.50;100.00;97658.31;5070530;28;20472;-71
2021/12/12 10:59:34;;;;;;;6.40;4.47;;;;;;;2.50;100.00;97641.88;5055391;28;20900;-71
2021/12/12 11:02:09;;;;;;;5.70;4.90;;;;;;;2.35;100.00;97638.03;5053765;28;20498;-71
2021/12/12 11:04:45;;;;;;;7.13;4.17;;;;;;;2.57;100.00;97648.50;5070944;28;20438;-72
2021/12/12 11:07:20;;;;;;;7.30;3.80;;;;;;;2.54;100.00;97637.75;5053757;28;20482;-72
2021/12/12 11:10:09;;;;;;;6.37;3.23;;;;;;;2.49;100.00;97625.41;5055079;28;20507;-72
2021/12/12 11:12:57;;;;;;;8.67;3.30;;;;;;;2.52;100.00;97648.44;5070404;28;20512;-72
2021/12/12 11:15:38;;;;;;;4.90;4.47;;;;;;;2.43;100.00;97636.06;5037189;28;20959;-72
2021/12/12 11:18:10;;;;;;;5.17;4.50;;;;;;;2.54;100.00;97637.75;5053703;28;20463;-72
2021/12/12 11:20:38;;;;;;;9.80;4.00;;;;;;;2.58;100.00;97642.25;5053355;28;20464;-73
2021/12/12 11:23:15;;;;;;;4.70;4.07;;;;;;;2.53;100.00;97629.13;5053238;28;20437;-72
2021/12/12 11:25:46;;;;;;;3.83;3.33;;;;;;;2.63;100.00;97639.69;5053177;28;20501;-72
2021/12/12 11:28:18;;;;;;;7.47;3.53;;;;;;;2.76;100.00;97646.38;5069861;28;20520;-73
2021/12/12 11:30:56;;;;;;;7.57;3.80;;;;;;;2.70;100.00;97636.91;5070096;28;20437;-72
2021/12/12 11:33:26;;;;;;;18.43;12.33;;;;;;;2.87;100.00;97640.25;5053405;28;20439;-74
2021/12/12 11:35:55;;;;;;;9.03;5.43;;;;;;;2.89;100.00;97638.19;5052972;28;20476;-74
2021/12/12 11:38:22;;;;;;;39.67;24.20;;;;;;;2.89;100.00;97635.56;5053056;28;20466;-74
2021/12/12 11:41:03;;;;;;;158.70;86.57;;;;;;;2.86;100.00;97628.22;5069639;28;20437;-74
2021/12/12 11:43:37;;;;;;;14.43;7.20;;;;;;;2.67;100.00;97619.91;5053096;28;20429;-74
2021/12/12 11:46:13;;;;;;;34.43;19.43;;;;;;;2.73;100.00;97633.81;5069656;28;20511;-74
2021/12/12 11:48:40;;;;;;;60.73;30.30;;;;;;;2.81;100.00;97632.63;5054373;28;20420;-74
2021/12/12 11:51:23;;;;;;;134.17;63.93;;;;;;;2.80;100.00;97644.06;5068975;28;20441;-74
2021/12/12 11:54:10;;;;;;;26.80;16.37;;;;;;;2.67;100.00;97632.97;5054100;28;20981;-74
2021/12/12 11:56:45;;;;;;;59.10;44.57;;;;;;;2.70;100.00;97634.31;5052736;28;20530;-74
2021/12/12 11:59:30;;;;;;;22.17;16.63;;;;;;;2.77;100.00;97634.91;5069386;28;20443;-74
2021/12/12 12:02:34;;;;;;;12.60;8.10;;;;;;;2.79;100.00;97622.38;5052676;28;20915;-75
2021/12/12 12:05:38;;;;;;;15.30;9.37;;;;;;;2.87;100.00;97626.41;5052454;28;20819;-75
2021/12/12 12:08:20;;;;;;;9.90;8.40;;;;;;;2.92;100.00;97618.63;5011720;28;20489;-75
2021/12/12 12:11:08;;;;;;;7.50;5.27;;;;;;;2.90;100.00;97607.63;5050945;28;20487;-73
2021/12/12 12:13:49;;;;;;;7.33;4.73;;;;;;;2.87;100.00;97590.63;5052368;28;20496;-73